Time;durP1;ratioP1;P1;durP2;ratioP2;P2;SDS_P1;SDS_P2;PMS_P1;PMS_P2;Temp;Humidity;BMP_temperature;BMP_pressure;BME280_temperature;BME280_humidity;BME280_pressure;Samples;Min_cycle;Max_cycle;Signal;HPM_P1;HPM_P2
2023/12/16 00:02:20;;;;;;;;;;;5.30;99.90;;;;;;5078176;28;19915;-80
2023/12/16 00:04:49;;;;;;;;;;;5.20;99.90;;;;;;5072650;28;20259;-80
2023/12/16 00:07:14;;;;;;;;;;;5.20;99.90;;;;;;5073481;28;20275;-80
2023/12/16 00:09:40;;;;;;;;;;;5.20;99.90;;;;;;5081158;28;19924;-79
2023/12/16 00:12:05;;;;;;;;;;;5.20;99.90;;;;;;5055684;28;19909;-79
2023/12/16 00:14:36;;;;;;;;;;;5.20;99.90;;;;;;5073777;28;19915;-80
2023/12/16 00:17:01;;;;;;;;;;;5.10;99.90;;;;;;5075103;28;20361;-80
2023/12/16 00:19:27;;;;;;;;;;;5.10;99.90;;;;;;5073726;28;19950;-79
2023/12/16 00:21:53;;;;;;;;;;;5.10;99.90;;;;;;5076197;28;19900;-80
2023/12/16 00:24:18;;;;;;;;;;;5.10;99.90;;;;;;5073283;28;19908;-80
2023/12/16 00:26:44;;;;;;;;;;;5.10;99.90;;;;;;5073468;28;19966;-80
2023/12/16 00:29:09;;;;;;;;;;;5.10;99.90;;;;;;5063405;28;19913;-80
2023/12/16 00:31:35;;;;;;;;;;;5.00;99.90;;;;;;5050660;28;19943;-80
2023/12/16 00:34:00;;;;;;;;;;;5.10;99.90;;;;;;5073446;28;19915;-80
2023/12/16 00:36:26;;;;;;;;;;;5.10;99.90;;;;;;5085925;28;19939;-80
2023/12/16 00:38:51;;;;;;;;;;;5.10;99.90;;;;;;5093391;28;19912;-79
2023/12/16 00:41:17;;;;;;;;;;;5.00;99.90;;;;;;5075040;28;20405;-79
2023/12/16 00:43:42;;;;;;;;;;;5.00;99.90;;;;;;5075564;28;19958;-79
2023/12/16 00:46:08;;;;;;;;;;;5.00;99.90;;;;;;5070491;28;19948;-79
2023/12/16 00:48:34;;;;;;;;;;;5.00;99.90;;;;;;5057851;28;19916;-80
2023/12/16 00:51:00;;;;;;;;;;;5.00;99.90;;;;;;5063689;28;19924;-79
2023/12/16 00:53:25;;;;;;;;;;;5.00;99.90;;;;;;5056682;28;19948;-80
2023/12/16 00:55:51;;;;;;;;;;;5.00;99.90;;;;;;5048406;28;19916;-80
2023/12/16 00:58:16;;;;;;;;;;;5.00;99.90;;;;;;5065197;28;19913;-79
2023/12/16 01:00:42;;;;;;;;;;;5.00;99.90;;;;;;5059054;28;20035;-79
2023/12/16 01:03:08;;;;;;;;;;;5.00;99.90;;;;;;5042694;28;20066;-80
2023/12/16 01:05:34;;;;;;;;;;;4.90;99.90;;;;;;5039586;28;19913;-80
2023/12/16 01:07:59;;;;;;;;;;;4.90;99.90;;;;;;5056599;28;20467;-79
2023/12/16 01:10:25;;;;;;;;;;;4.90;99.90;;;;;;5058368;28;19917;-79
2023/12/16 01:12:50;;;;;;;;;;;4.90;99.90;;;;;;5039275;28;20390;-80
2023/12/16 01:15:16;;;;;;;;;;;5.00;99.90;;;;;;5057169;28;20266;-80
2023/12/16 01:17:41;;;;;;;;;;;5.00;99.90;;;;;;5078753;28;19897;-80
2023/12/16 01:20:07;;;;;;;;;;;4.90;99.90;;;;;;5039000;28;19913;-80
2023/12/16 01:22:33;;;;;;;;;;;5.00;99.90;;;;;;5038535;28;19958;-80
2023/12/16 01:24:58;;;;;;;;;;;5.00;99.90;;;;;;5065519;28;19920;-79
2023/12/16 01:27:24;;;;;;;;;;;5.00;99.90;;;;;;5038569;28;19963;-80
2023/12/16 01:29:50;;;;;;;;;;;5.00;99.90;;;;;;5046384;28;19916;-79
2023/12/16 01:32:15;;;;;;;;;;;4.90;99.90;;;;;;5071241;28;19920;-80
2023/12/16 01:34:41;;;;;;;;;;;4.90;99.90;;;;;;5062922;28;19912;-79
2023/12/16 01:37:06;;;;;;;;;;;4.90;99.90;;;;;;5098039;28;20394;-79
2023/12/16 01:39:32;;;;;;;;;;;4.90;99.90;;;;;;5078116;28;19930;-80
2023/12/16 01:41:57;;;;;;;;;;;4.80;99.90;;;;;;5076123;28;19965;-79
2023/12/16 01:44:23;;;;;;;;;;;4.80;99.90;;;;;;5079549;28;19901;-80
2023/12/16 01:46:49;;;;;;;;;;;4.80;99.90;;;;;;5038127;28;19909;-80
2023/12/16 01:49:15;;;;;;;;;;;4.80;99.90;;;;;;5037607;28;19916;-79
2023/12/16 01:51:40;;;;;;;;;;;4.80;99.90;;;;;;5063661;28;19913;-79
2023/12/16 01:54:06;;;;;;;;;;;4.80;99.90;;;;;;5063034;28;19952;-79
2023/12/16 01:56:32;;;;;;;;;;;4.80;99.90;;;;;;5053224;28;19944;-79
2023/12/16 01:58:58;;;;;;;;;;;4.80;99.90;;;;;;5077675;28;19916;-80
2023/12/16 02:01:23;;;;;;;;;;;4.80;99.90;;;;;;5057746;28;19916;-79
2023/12/16 02:03:50;;;;;;;;;;;4.80;99.90;;;;;;5079067;28;19896;-79
2023/12/16 02:06:16;;;;;;;;;;;4.70;99.90;;;;;;5057746;28;19912;-79
2023/12/16 02:08:41;;;;;;;;;;;4.70;99.90;;;;;;5048395;28;20387;-79
2023/12/16 02:11:10;;;;;;;;;;;4.70;99.90;;;;;;5039413;28;19916;-79
2023/12/16 02:13:36;;;;;;;;;;;4.70;99.90;;;;;;5037711;28;19916;-79
2023/12/16 02:16:02;;;;;;;;;;;4.60;99.90;;;;;;5037817;28;20336;-79
2023/12/16 02:18:27;;;;;;;;;;;4.60;99.90;;;;;;5049342;28;19999;-79
2023/12/16 02:20:53;;;;;;;;;;;4.50;99.90;;;;;;5037501;28;19909;-80
2023/12/16 02:23:18;;;;;;;;;;;4.50;99.90;;;;;;5037110;28;19920;-79
2023/12/16 02:25:44;;;;;;;;;;;4.50;99.90;;;;;;5047717;28;19962;-79
2023/12/16 02:28:10;;;;;;;;;;;4.50;99.90;;;;;;5037736;28;20298;-80
2023/12/16 02:30:35;;;;;;;;;;;4.50;99.90;;;;;;5061996;28;20382;-79
2023/12/16 02:33:01;;;;;;;;;;;4.50;99.90;;;;;;5074979;28;19963;-79
2023/12/16 02:35:26;;;;;;;;;;;4.50;99.90;;;;;;5057171;28;19915;-79
2023/12/16 02:37:52;;;;;;;;;;;4.50;99.90;;;;;;5086285;28;19919;-79
2023/12/16 02:40:17;;;;;;;;;;;4.50;99.90;;;;;;5075108;28;20411;-79
2023/12/16 02:42:43;;;;;;;;;;;4.50;99.90;;;;;;5056981;28;19928;-79
2023/12/16 02:45:09;;;;;;;;;;;4.40;99.90;;;;;;5087273;28;19897;-79
2023/12/16 02:47:34;;;;;;;;;;;4.40;99.90;;;;;;5046417;28;20331;-80
2023/12/16 02:50:00;;;;;;;;;;;4.40;99.90;;;;;;5043697;28;19919;-79
2023/12/16 02:52:25;;;;;;;;;;;4.40;99.90;;;;;;5083319;28;19912;-79
2023/12/16 02:54:51;;;;;;;;;;;4.40;99.90;;;;;;5066723;28;20356;-79
2023/12/16 02:57:16;;;;;;;;;;;4.40;99.90;;;;;;5069737;28;20051;-80
2023/12/16 02:59:42;;;;;;;;;;;4.40;99.90;;;;;;5070286;28;19916;-79
2023/12/16 03:02:08;;;;;;;;;;;4.40;99.90;;;;;;5056594;28;19942;-80
2023/12/16 03:04:33;;;;;;;;;;;4.40;99.90;;;;;;5055922;28;19955;-79
2023/12/16 03:06:58;;;;;;;;;;;4.40;99.90;;;;;;5083327;28;19968;-80
2023/12/16 03:09:24;;;;;;;;;;;4.40;99.90;;;;;;5051218;28;19913;-79
2023/12/16 03:11:49;;;;;;;;;;;4.40;99.90;;;;;;5051626;28;20020;-79
2023/12/16 03:14:16;;;;;;;;;;;4.40;99.90;;;;;;5074494;28;20370;-79
2023/12/16 03:16:41;;;;;;;;;;;4.40;99.90;;;;;;5057534;28;19912;-79
2023/12/16 03:19:07;;;;;;;;;;;4.30;99.90;;;;;;5055640;28;20429;-79
2023/12/16 03:21:32;;;;;;;;;;;4.30;99.90;;;;;;5064091;28;19948;-79
2023/12/16 03:23:58;;;;;;;;;;;4.30;99.90;;;;;;5087720;28;20334;-79
2023/12/16 03:26:23;;;;;;;;;;;4.30;99.90;;;;;;5074171;28;19916;-79
2023/12/16 03:28:49;;;;;;;;;;;4.30;99.90;;;;;;5056405;28;19908;-79
2023/12/16 03:31:15;;;;;;;;;;;4.20;99.90;;;;;;5052637;28;19925;-79
2023/12/16 03:33:40;;;;;;;;;;;4.20;99.90;;;;;;5054575;28;20279;-79
2023/12/16 03:36:09;;;;;;;;;;;4.20;99.90;;;;;;5072759;28;19912;-79
2023/12/16 03:38:34;;;;;;;;;;;4.20;99.90;;;;;;5095728;28;19902;-80
2023/12/16 03:41:00;;;;;;;;;;;4.20;99.90;;;;;;5096966;28;20368;-80
2023/12/16 03:43:25;;;;;;;;;;;4.20;99.90;;;;;;5061611;28;19908;-79
2023/12/16 03:45:51;;;;;;;;;;;4.20;99.90;;;;;;5079641;28;19900;-80
2023/12/16 03:48:17;;;;;;;;;;;4.20;99.90;;;;;;5060645;28;19958;-80
2023/12/16 03:50:43;;;;;;;;;;;4.20;99.90;;;;;;5036343;28;19959;-80
2023/12/16 03:53:08;;;;;;;;;;;4.20;99.90;;;;;;5066826;28;19901;-80
2023/12/16 03:55:34;;;;;;;;;;;4.20;99.90;;;;;;5067729;28;19936;-79
2023/12/16 03:57:59;;;;;;;;;;;4.20;99.90;;;;;;5074110;28;19912;-79
2023/12/16 04:00:25;;;;;;;;;;;4.20;99.90;;;;;;5063859;28;19897;-80
2023/12/16 04:02:50;;;;;;;;;;;4.20;99.90;;;;;;5069445;28;19921;-80
2023/12/16 04:05:16;;;;;;;;;;;4.20;99.90;;;;;;5065401;28;19913;-80
2023/12/16 04:07:41;;;;;;;;;;;4.10;99.90;;;;;;5036025;28;19909;-79
2023/12/16 04:10:08;;;;;;;;;;;4.10;99.90;;;;;;5046594;28;19913;-79
2023/12/16 04:12:33;;;;;;;;;;;4.10;99.90;;;;;;5035720;28;19908;-79
2023/12/16 04:14:59;;;;;;;;;;;4.10;99.90;;;;;;5053604;28;19916;-79
2023/12/16 04:17:24;;;;;;;;;;;4.00;99.90;;;;;;5064727;28;20411;-79
2023/12/16 04:19:53;;;;;;;;;;;4.00;99.90;;;;;;5035702;28;19913;-79
2023/12/16 04:22:19;;;;;;;;;;;4.00;99.90;;;;;;5053474;28;19928;-79
2023/12/16 04:24:45;;;;;;;;;;;4.00;99.90;;;;;;5054821;28;19913;-79
2023/12/16 04:27:11;;;;;;;;;;;4.00;99.90;;;;;;5053475;28;20440;-79
2023/12/16 04:29:37;;;;;;;;;;;4.10;99.90;;;;;;5063657;28;19923;-79
2023/12/16 04:32:02;;;;;;;;;;;4.00;99.90;;;;;;5061931;28;20011;-80
2023/12/16 04:34:29;;;;;;;;;;;4.00;99.90;;;;;;5077330;28;19936;-79
2023/12/16 04:36:54;;;;;;;;;;;4.00;99.90;;;;;;5079134;28;19900;-79
2023/12/16 04:39:20;;;;;;;;;;;4.10;99.90;;;;;;5058889;28;19920;-80
2023/12/16 04:41:45;;;;;;;;;;;4.10;99.90;;;;;;5059452;28;20286;-79
2023/12/16 04:44:11;;;;;;;;;;;4.10;99.90;;;;;;5080709;28;19920;-80
2023/12/16 04:46:37;;;;;;;;;;;4.20;99.90;;;;;;5077789;28;19954;-80
2023/12/16 04:49:02;;;;;;;;;;;4.20;99.90;;;;;;5040373;28;19915;-80
2023/12/16 04:51:28;;;;;;;;;;;4.20;99.90;;;;;;5051707;28;19975;-80
2023/12/16 04:53:53;;;;;;;;;;;4.20;99.90;;;;;;5045931;28;19909;-79
2023/12/16 04:56:19;;;;;;;;;;;4.20;99.90;;;;;;5057547;28;19920;-79
2023/12/16 04:58:44;;;;;;;;;;;4.20;99.90;;;;;;5063082;28;20003;-80
2023/12/16 05:01:10;;;;;;;;;;;4.10;99.90;;;;;;5048890;28;19917;-80
2023/12/16 05:03:35;;;;;;;;;;;4.10;99.90;;;;;;5078570;28;19903;-79
2023/12/16 05:06:01;;;;;;;;;;;4.10;99.90;;;;;;5055504;28;19909;-80
2023/12/16 05:08:26;;;;;;;;;;;4.10;99.90;;;;;;5038836;28;19920;-80
2023/12/16 05:10:52;;;;;;;;;;;4.10;99.90;;;;;;5042125;28;19966;-79
2023/12/16 05:13:18;;;;;;;;;;;4.10;99.90;;;;;;5056710;28;20344;-79
2023/12/16 05:15:43;;;;;;;;;;;4.00;99.90;;;;;;5056687;28;19909;-79
2023/12/16 05:18:09;;;;;;;;;;;4.10;99.90;;;;;;5058334;28;19966;-79
2023/12/16 05:20:35;;;;;;;;;;;4.30;99.90;;;;;;5038345;28;20027;-79
2023/12/16 05:23:00;;;;;;;;;;;4.50;99.90;;;;;;5044574;28;19913;-79
2023/12/16 05:25:27;;;;;;;;;;;4.70;99.90;;;;;;5040426;28;19913;-79
2023/12/16 05:27:52;;;;;;;;;;;4.80;99.90;;;;;;5056023;28;19921;-79
2023/12/16 05:30:18;;;;;;;;;;;4.80;99.90;;;;;;5041479;28;19913;-79
2023/12/16 05:32:44;;;;;;;;;;;4.90;99.90;;;;;;5055665;28;19913;-79
2023/12/16 05:35:09;;;;;;;;;;;5.00;99.90;;;;;;5051858;28;20384;-79
2023/12/16 05:37:35;;;;;;;;;;;5.10;99.90;;;;;;5076327;28;19912;-80
2023/12/16 05:40:00;;;;;;;;;;;5.10;99.90;;;;;;5081096;28;20352;-79
2023/12/16 05:42:26;;;;;;;;;;;5.20;99.90;;;;;;5069416;28;19917;-80
2023/12/16 05:44:51;;;;;;;;;;;5.30;99.90;;;;;;5056845;28;20441;-79
2023/12/16 05:47:17;;;;;;;;;;;5.40;99.90;;;;;;5058283;28;19920;-79
2023/12/16 05:49:43;;;;;;;;;;;5.50;99.90;;;;;;5056189;28;19908;-79
2023/12/16 05:52:08;;;;;;;;;;;5.60;99.90;;;;;;5051916;28;19957;-80
2023/12/16 05:54:34;;;;;;;;;;;5.70;99.90;;;;;;5058210;28;19932;-79
2023/12/16 05:56:59;;;;;;;;;;;5.80;99.90;;;;;;5054692;28;19909;-79
2023/12/16 05:59:25;;;;;;;;;;;5.90;99.90;;;;;;5056506;28;19916;-80
2023/12/16 06:01:51;;;;;;;;;;;6.00;99.90;;;;;;5057587;28;19972;-79
2023/12/16 06:04:16;;;;;;;;;;;6.00;99.90;;;;;;5054672;28;19913;-79
2023/12/16 06:06:42;;;;;;;;;;;6.10;99.90;;;;;;5038814;28;19924;-79
2023/12/16 06:09:07;;;;;;;;;;;6.10;99.90;;;;;;5049945;28;19909;-80
2023/12/16 06:11:33;;;;;;;;;;;6.20;99.90;;;;;;5054271;28;20272;-79
2023/12/16 06:13:59;;;;;;;;;;;6.20;99.90;;;;;;5057618;28;19917;-79
2023/12/16 06:16:24;;;;;;;;;;;6.20;99.90;;;;;;5054086;28;20393;-80
2023/12/16 06:18:50;;;;;;;;;;;6.20;99.90;;;;;;5054614;28;19958;-79
2023/12/16 06:21:16;;;;;;;;;;;6.20;99.90;;;;;;5057291;28;19956;-79
2023/12/16 06:23:41;;;;;;;;;;;6.20;99.90;;;;;;5055667;28;19909;-79
2023/12/16 06:26:07;;;;;;;;;;;6.30;99.90;;;;;;5056743;28;20368;-79
2023/12/16 06:28:32;;;;;;;;;;;6.30;99.90;;;;;;5054076;28;19909;-79
2023/12/16 06:30:58;;;;;;;;;;;6.30;99.90;;;;;;5059684;28;19920;-80
2023/12/16 06:33:23;;;;;;;;;;;6.30;99.90;;;;;;5062923;28;19916;-79
2023/12/16 06:35:49;;;;;;;;;;;6.30;99.90;;;;;;5057105;28;19908;-80
2023/12/16 06:38:14;;;;;;;;;;;6.30;99.90;;;;;;5075313;28;19909;-80
2023/12/16 06:40:40;;;;;;;;;;;6.30;99.90;;;;;;5063117;28;20039;-79
2023/12/16 06:43:06;;;;;;;;;;;6.40;99.90;;;;;;5074975;28;19970;-80
2023/12/16 06:45:34;;;;;;;;;;;6.40;99.90;;;;;;5057239;28;19916;-79
2023/12/16 06:48:00;;;;;;;;;;;6.50;99.90;;;;;;5047891;28;19960;-80
2023/12/16 06:50:26;;;;;;;;;;;6.50;99.90;;;;;;5070209;28;19956;-80
2023/12/16 06:52:51;;;;;;;;;;;6.50;99.90;;;;;;5047719;28;19901;-80
2023/12/16 06:55:17;;;;;;;;;;;6.50;99.90;;;;;;5066459;28;19913;-79
2023/12/16 06:57:43;;;;;;;;;;;6.50;99.90;;;;;;5054778;28;19909;-80
2023/12/16 07:00:09;;;;;;;;;;;6.50;99.90;;;;;;5044276;28;19981;-80
2023/12/16 07:02:36;;;;;;;;;;;6.50;99.90;;;;;;5044060;28;19928;-80
2023/12/16 07:05:02;;;;;;;;;;;6.60;99.90;;;;;;5049108;28;20449;-80
2023/12/16 07:07:28;;;;;;;;;;;6.60;99.90;;;;;;5076253;28;19913;-80
2023/12/16 07:09:53;;;;;;;;;;;6.60;99.90;;;;;;5056906;28;19951;-80
2023/12/16 07:12:19;;;;;;;;;;;6.60;99.90;;;;;;5074992;28;20272;-80
2023/12/16 07:14:44;;;;;;;;;;;6.60;99.90;;;;;;5070590;28;19920;-79
2023/12/16 07:17:10;;;;;;;;;;;6.60;99.90;;;;;;5056493;28;20298;-80
2023/12/16 07:19:35;;;;;;;;;;;6.60;99.90;;;;;;5056151;28;19912;-80
2023/12/16 07:22:01;;;;;;;;;;;6.70;99.90;;;;;;5082008;28;19924;-80
2023/12/16 07:24:27;;;;;;;;;;;6.70;99.90;;;;;;5047376;28;19916;-80
2023/12/16 07:26:53;;;;;;;;;;;6.70;99.90;;;;;;5056305;28;19923;-79
2023/12/16 07:29:21;;;;;;;;;;;6.70;99.90;;;;;;5084127;28;19928;-80
2023/12/16 07:31:47;;;;;;;;;;;6.70;99.90;;;;;;5050624;28;19974;-80
2023/12/16 07:34:12;;;;;;;;;;;6.70;99.90;;;;;;5055006;28;19956;-79
2023/12/16 07:36:38;;;;;;;;;;;6.80;99.90;;;;;;5090832;28;19952;-80
2023/12/16 07:39:03;;;;;;;;;;;6.80;99.90;;;;;;5055740;28;19908;-79
2023/12/16 07:41:29;;;;;;;;;;;6.80;99.90;;;;;;5073857;28;19917;-80
2023/12/16 07:43:54;;;;;;;;;;;6.80;99.90;;;;;;5088990;28;19912;-79
2023/12/16 07:46:20;;;;;;;;;;;6.80;99.90;;;;;;5074158;28;19963;-80
2023/12/16 07:48:46;;;;;;;;;;;6.80;99.90;;;;;;5042893;28;20007;-80
2023/12/16 07:51:15;;;;;;;;;;;6.80;99.90;;;;;;5067792;28;19917;-80
2023/12/16 07:53:43;;;;;;;;;;;6.90;99.90;;;;;;5065938;28;19916;-80
2023/12/16 07:56:22;;;;;;;;;;;6.90;99.90;;;;;;5067601;28;19912;-80
2023/12/16 07:58:48;;;;;;;;;;;6.90;99.90;;;;;;5055854;28;19917;-79
2023/12/16 08:01:14;;;;;;;;;;;6.90;99.90;;;;;;5037938;28;19921;-80
2023/12/16 08:03:39;;;;;;;;;;;7.00;99.90;;;;;;5035711;28;19948;-79
2023/12/16 08:06:05;;;;;;;;;;;7.00;99.90;;;;;;5073847;28;19908;-80
2023/12/16 08:08:30;;;;;;;;;;;7.00;99.90;;;;;;5076470;28;19920;-80
2023/12/16 08:10:56;;;;;;;;;;;6.90;99.90;;;;;;5073751;28;19963;-80
2023/12/16 08:13:21;;;;;;;;;;;7.00;99.90;;;;;;5061354;28;19924;-80
2023/12/16 08:15:47;;;;;;;;;;;7.00;99.90;;;;;;5075653;28;20058;-79
2023/12/16 08:18:13;;;;;;;;;;;7.00;99.90;;;;;;5055610;28;19957;-79
2023/12/16 08:20:38;;;;;;;;;;;7.00;99.90;;;;;;5064856;28;19908;-79
2023/12/16 08:23:05;;;;;;;;;;;7.10;99.90;;;;;;5077851;28;20011;-79
2023/12/16 08:25:31;;;;;;;;;;;7.10;99.90;;;;;;5094054;28;20354;-80
2023/12/16 08:27:56;;;;;;;;;;;7.10;99.90;;;;;;5075704;28;19949;-79
2023/12/16 08:30:22;;;;;;;;;;;7.10;99.90;;;;;;5071736;28;19924;-80
2023/12/16 08:32:47;;;;;;;;;;;7.10;99.90;;;;;;5071948;28;19975;-80
2023/12/16 08:35:14;;;;;;;;;;;7.10;99.90;;;;;;5082183;28;19908;-79
2023/12/16 08:37:40;;;;;;;;;;;7.10;99.90;;;;;;5072048;28;19916;-79
2023/12/16 08:40:06;;;;;;;;;;;7.10;99.90;;;;;;5068395;28;19916;-80
2023/12/16 08:42:32;;;;;;;;;;;7.20;99.90;;;;;;5056661;28;19904;-79
2023/12/16 08:44:57;;;;;;;;;;;7.20;99.90;;;;;;5073348;28;19908;-80
2023/12/16 08:47:23;;;;;;;;;;;7.20;99.90;;;;;;5055226;28;20400;-79
2023/12/16 08:49:48;;;;;;;;;;;7.20;99.90;;;;;;5056205;28;19913;-79
2023/12/16 08:52:14;;;;;;;;;;;7.20;99.90;;;;;;5072802;28;19919;-80
2023/12/16 08:54:41;;;;;;;;;;;7.20;99.90;;;;;;5045242;28;19917;-79
2023/12/16 08:57:06;;;;;;;;;;;7.20;99.90;;;;;;5071893;28;19920;-79
2023/12/16 08:59:32;;;;;;;;;;;7.30;99.90;;;;;;5073273;28;19908;-80
2023/12/16 09:01:57;;;;;;;;;;;7.30;99.90;;;;;;5056958;28;19916;-80
2023/12/16 09:04:23;;;;;;;;;;;7.30;99.90;;;;;;5064340;28;19912;-80
2023/12/16 09:06:48;;;;;;;;;;;7.30;99.90;;;;;;5053232;28;19909;-80
2023/12/16 09:09:14;;;;;;;;;;;7.30;99.90;;;;;;5036548;28;20271;-79
2023/12/16 09:11:44;;;;;;;;;;;7.30;99.90;;;;;;5072655;28;20283;-79
2023/12/16 09:14:12;;;;;;;;;;;7.40;99.90;;;;;;5072886;28;19919;-80
2023/12/16 09:16:38;;;;;;;;;;;7.30;99.90;;;;;;5087857;28;19910;-80
2023/12/16 09:19:03;;;;;;;;;;;7.40;99.90;;;;;;5098310;28;20358;-79
2023/12/16 09:21:29;;;;;;;;;;;7.40;99.90;;;;;;5096829;28;19912;-80
2023/12/16 09:23:55;;;;;;;;;;;7.50;99.90;;;;;;5103071;28;19919;-79
2023/12/16 09:26:23;;;;;;;;;;;7.40;99.90;;;;;;5096688;28;19965;-80
2023/12/16 09:28:49;;;;;;;;;;;7.60;99.90;;;;;;5097250;28;19911;-80
2023/12/16 09:31:15;;;;;;;;;;;7.50;99.90;;;;;;5055862;28;20287;-79
2023/12/16 09:33:41;;;;;;;;;;;7.40;99.90;;;;;;5074313;28;19931;-80
2023/12/16 09:36:10;;;;;;;;;;;7.40;99.90;;;;;;5055971;28;19916;-80
2023/12/16 09:38:36;;;;;;;;;;;7.40;99.90;;;;;;5077063;28;20394;-80
2023/12/16 09:41:02;;;;;;;;;;;7.50;99.90;;;;;;5058149;28;19912;-79
2023/12/16 09:43:32;;;;;;;;;;;7.60;99.90;;;;;;5079444;28;19916;-80
2023/12/16 09:45:57;;;;;;;;;;;7.60;99.90;;;;;;5060240;28;19919;-79
2023/12/16 09:48:23;;;;;;;;;;;7.60;99.90;;;;;;5069255;28;20008;-80
2023/12/16 09:50:49;;;;;;;;;;;7.70;99.90;;;;;;5057543;28;19936;-79
2023/12/16 09:53:14;;;;;;;;;;;7.90;99.90;;;;;;5057738;28;20362;-79
2023/12/16 09:55:41;;;;;;;;;;;8.20;99.90;;;;;;5050019;28;20276;-80
2023/12/16 09:58:09;;;;;;;;;;;8.30;99.90;;;;;;5093788;28;19923;-79
2023/12/16 10:00:37;;;;;;;;;;;8.20;99.90;;;;;;5059639;28;19982;-79
2023/12/16 10:03:03;;;;;;;;;;;8.10;99.90;;;;;;5068040;28;19926;-79
2023/12/16 10:05:32;;;;;;;;;;;8.20;99.90;;;;;;5058645;28;20442;-79
2023/12/16 10:08:02;;;;;;;;;;;8.20;99.90;;;;;;5057703;28;19908;-79
2023/12/16 10:10:27;;;;;;;;;;;8.10;99.90;;;;;;5072502;28;19944;-79
2023/12/16 10:12:53;;;;;;;;;;;8.10;99.90;;;;;;5043900;28;19904;-79
2023/12/16 10:15:29;;;;;;;;;;;8.00;99.90;;;;;;5057356;28;19936;-79
2023/12/16 10:17:55;;;;;;;;;;;8.00;99.90;;;;;;5055786;28;19991;-79
2023/12/16 10:20:20;;;;;;;;;;;8.10;99.90;;;;;;5058765;28;19978;-79
2023/12/16 10:22:46;;;;;;;;;;;8.20;99.90;;;;;;5054999;28;19928;-79
2023/12/16 10:25:11;;;;;;;;;;;8.20;99.90;;;;;;5055266;28;19908;-79
2023/12/16 10:27:37;;;;;;;;;;;8.30;99.90;;;;;;5058449;28;19917;-79
2023/12/16 10:30:05;;;;;;;;;;;8.30;99.90;;;;;;5058633;28;19921;-80
2023/12/16 10:32:31;;;;;;;;;;;8.30;99.90;;;;;;5057067;28;20027;-79
2023/12/16 10:34:57;;;;;;;;;;;8.30;99.90;;;;;;5065177;28;19955;-79
2023/12/16 10:37:22;;;;;;;;;;;8.40;99.90;;;;;;5076844;28;19912;-79
2023/12/16 10:39:47;;;;;;;;;;;8.30;99.90;;;;;;5095234;28;19914;-79
2023/12/16 10:42:13;;;;;;;;;;;8.40;99.90;;;;;;5078681;28;20386;-79
2023/12/16 10:44:38;;;;;;;;;;;8.50;99.90;;;;;;5057508;28;19916;-80
2023/12/16 10:47:06;;;;;;;;;;;8.50;99.90;;;;;;5057485;28;19909;-79
2023/12/16 10:49:34;;;;;;;;;;;8.40;99.90;;;;;;5057640;28;19948;-80
2023/12/16 10:52:08;;;;;;;;;;;8.40;99.90;;;;;;5045416;28;20293;-80
2023/12/16 10:54:39;;;;;;;;;;;8.50;99.90;;;;;;5064499;28;19916;-79
2023/12/16 10:57:08;;;;;;;;;;;8.60;99.90;;;;;;5059247;28;19919;-79
2023/12/16 10:59:38;;;;;;;;;;;8.60;99.90;;;;;;5074858;28;20299;-79
2023/12/16 11:02:06;;;;;;;;;;;8.60;99.90;;;;;;5069045;28;19921;-80
2023/12/16 11:04:34;;;;;;;;;;;8.50;99.90;;;;;;5038432;28;19920;-80
2023/12/16 11:07:10;;;;;;;;;;;8.50;99.90;;;;;;5036660;28;19913;-79
2023/12/16 11:09:36;;;;;;;;;;;8.60;99.90;;;;;;5060891;28;19966;-79
2023/12/16 11:12:03;;;;;;;;;;;8.70;99.90;;;;;;5036554;28;19909;-79
2023/12/16 11:14:29;;;;;;;;;;;8.70;99.90;;;;;;5036608;28;19916;-79
2023/12/16 11:17:05;;;;;;;;;;;8.70;99.90;;;;;;5044399;28;20313;-79
2023/12/16 11:19:44;;;;;;;;;;;8.70;99.90;;;;;;5036595;28;19920;-80
2023/12/16 11:22:10;;;;;;;;;;;8.80;99.90;;;;;;5036489;28;19917;-79
2023/12/16 11:24:42;;;;;;;;;;;8.80;99.90;;;;;;5040889;28;20448;-80
2023/12/16 11:27:07;;;;;;;;;;;8.70;99.90;;;;;;5052815;28;19912;-79
2023/12/16 11:29:33;;;;;;;;;;;8.70;99.90;;;;;;5054528;28;20294;-80
2023/12/16 11:32:01;;;;;;;;;;;8.70;99.90;;;;;;5054541;28;19920;-79
2023/12/16 11:34:50;;;;;;;;;;;8.50;99.90;;;;;;5058294;28;19909;-80
2023/12/16 11:37:35;;;;;;;;;;;8.50;99.90;;;;;;5081961;28;19915;-79
2023/12/16 11:40:03;;;;;;;;;;;8.40;99.90;;;;;;5058106;28;19920;-79
2023/12/16 11:42:47;;;;;;;;;;;8.50;99.90;;;;;;5069333;28;19917;-79
2023/12/16 11:45:31;;;;;;;;;;;8.50;99.90;;;;;;5083740;28;19897;-79
2023/12/16 11:47:57;;;;;;;;;;;8.80;99.90;;;;;;5058132;28;19912;-80
2023/12/16 11:50:22;;;;;;;;;;;9.00;99.90;;;;;;5073310;28;19916;-79
2023/12/16 11:52:48;;;;;;;;;;;9.10;99.90;;;;;;5067046;28;19908;-80
2023/12/16 11:55:13;;;;;;;;;;;9.10;99.90;;;;;;5066964;28;20382;-80
2023/12/16 11:57:42;;;;;;;;;;;9.10;99.90;;;;;;5061127;28;19913;-79
2023/12/16 12:00:08;;;;;;;;;;;9.00;99.90;;;;;;5055690;28;19940;-79
2023/12/16 12:02:33;;;;;;;;;;;9.00;99.90;;;;;;5053486;28;19960;-80
2023/12/16 12:05:00;;;;;;;;;;;9.30;99.90;;;;;;5053701;28;19909;-79
2023/12/16 12:07:25;;;;;;;;;;;9.80;99.90;;;;;;5053928;28;19917;-79
2023/12/16 12:09:51;;;;;;;;;;;9.70;99.90;;;;;;5035680;28;19913;-80
2023/12/16 12:12:16;;;;;;;;;;;9.40;99.90;;;;;;5035654;28;19909;-79
2023/12/16 12:14:45;;;;;;;;;;;9.40;99.90;;;;;;5039058;28;19916;-79
2023/12/16 12:17:10;;;;;;;;;;;9.40;99.90;;;;;;5035574;28;19917;-79
2023/12/16 12:19:36;;;;;;;;;;;9.10;99.90;;;;;;5053144;28;19991;-79
2023/12/16 12:22:02;;;;;;;;;;;8.90;99.90;;;;;;5061328;28;19927;-79
2023/12/16 12:24:27;;;;;;;;;;;9.00;99.90;;;;;;5053195;28;19915;-79
2023/12/16 12:26:53;;;;;;;;;;;9.20;99.90;;;;;;5035413;28;19913;-79
2023/12/16 12:29:18;;;;;;;;;;;9.40;99.90;;;;;;5055332;28;19917;-80
2023/12/16 12:31:45;;;;;;;;;;;9.60;99.90;;;;;;5044071;28;19927;-80
2023/12/16 12:34:18;;;;;;;;;;;9.50;99.90;;;;;;5053212;28;19913;-80
2023/12/16 12:36:44;;;;;;;;;;;9.50;99.90;;;;;;5066406;28;20336;-79
2023/12/16 12:39:17;;;;;;;;;;;9.40;99.90;;;;;;5053200;28;19966;-79
2023/12/16 12:41:42;;;;;;;;;;;9.40;99.90;;;;;;5051898;28;20011;-80
2023/12/16 12:44:11;;;;;;;;;;;9.40;99.90;;;;;;5063510;28;19920;-80
2023/12/16 12:46:47;;;;;;;;;;;9.30;99.90;;;;;;5033404;28;19936;-80
2023/12/16 12:49:13;;;;;;;;;;;9.30;99.90;;;;;;5040004;28;19908;-80
2023/12/16 12:51:51;;;;;;;;;;;9.50;99.90;;;;;;5054071;28;19921;-79
2023/12/16 12:54:18;;;;;;;;;;;9.40;99.90;;;;;;5049128;28;19966;-79
2023/12/16 12:56:44;;;;;;;;;;;9.40;99.90;;;;;;5054996;28;19909;-80
2023/12/16 12:59:09;;;;;;;;;;;9.40;99.90;;;;;;5057485;28;19913;-80
2023/12/16 13:01:35;;;;;;;;;;;9.30;99.90;;;;;;5055649;28;19920;-79
2023/12/16 13:04:00;;;;;;;;;;;9.60;99.90;;;;;;5061664;28;19905;-79
2023/12/16 13:06:26;;;;;;;;;;;9.90;99.90;;;;;;5036404;28;19963;-80
2023/12/16 13:08:51;;;;;;;;;;;9.80;99.90;;;;;;5052866;28;20015;-79
2023/12/16 13:11:17;;;;;;;;;;;9.80;99.90;;;;;;5042912;28;20438;-80
2023/12/16 13:13:42;;;;;;;;;;;10.00;99.90;;;;;;5035573;28;19909;-79
2023/12/16 13:16:09;;;;;;;;;;;10.00;99.90;;;;;;5035606;28;19959;-79
2023/12/16 13:18:40;;;;;;;;;;;10.00;99.90;;;;;;5038556;28;20286;-79
2023/12/16 13:21:06;;;;;;;;;;;10.20;99.90;;;;;;5035241;28;20334;-80
2023/12/16 13:23:32;;;;;;;;;;;10.60;99.90;;;;;;5035103;28;19967;-80
2023/12/16 13:25:57;;;;;;;;;;;10.90;99.90;;;;;;5049288;28;19913;-79
2023/12/16 13:28:23;;;;;;;;;;;10.70;99.90;;;;;;5036587;28;20003;-80
2023/12/16 13:30:52;;;;;;;;;;;10.40;99.90;;;;;;5056152;28;20455;-79
2023/12/16 13:33:20;;;;;;;;;;;10.10;99.90;;;;;;5083760;28;19956;-79
2023/12/16 13:35:47;;;;;;;;;;;9.80;99.90;;;;;;5089756;28;19916;-80
2023/12/16 13:38:13;;;;;;;;;;;9.50;99.90;;;;;;5078150;28;20339;-80
2023/12/16 13:40:39;;;;;;;;;;;9.20;99.90;;;;;;5079890;28;19916;-79
2023/12/16 13:43:04;;;;;;;;;;;9.00;99.90;;;;;;5066694;28;20336;-80
2023/12/16 13:45:30;;;;;;;;;;;8.90;99.90;;;;;;5077705;28;19916;-80
2023/12/16 13:47:56;;;;;;;;;;;8.90;99.90;;;;;;5058128;28;19923;-80
2023/12/16 13:50:22;;;;;;;;;;;8.80;99.90;;;;;;5041698;28;19940;-80
2023/12/16 13:52:49;;;;;;;;;;;8.80;99.90;;;;;;5077616;28;19908;-80
2023/12/16 13:55:16;;;;;;;;;;;8.50;99.90;;;;;;5069101;28;19912;-80
2023/12/16 13:57:42;;;;;;;;;;;8.40;99.90;;;;;;5075940;28;20298;-80
2023/12/16 14:00:08;;;;;;;;;;;8.40;99.90;;;;;;5079456;28;19908;-79
2023/12/16 14:02:33;;;;;;;;;;;8.40;99.90;;;;;;5063527;28;19920;-79
2023/12/16 14:05:01;;;;;;;;;;;8.40;99.90;;;;;;5075778;28;19958;-80
2023/12/16 14:07:27;;;;;;;;;;;8.40;99.90;;;;;;5059259;28;19913;-79
2023/12/16 14:09:52;;;;;;;;;;;8.10;99.90;;;;;;5057792;28;19959;-79
2023/12/16 14:12:18;;;;;;;;;;;8.10;99.90;;;;;;5075758;28;20330;-80
2023/12/16 14:14:43;;;;;;;;;;;8.20;99.90;;;;;;5079374;28;19962;-79
2023/12/16 14:17:09;;;;;;;;;;;8.20;99.90;;;;;;5075669;28;19953;-80
2023/12/16 14:19:35;;;;;;;;;;;8.10;99.90;;;;;;5075800;28;20382;-79
2023/12/16 14:22:00;;;;;;;;;;;8.10;99.90;;;;;;5065531;28;19925;-80
2023/12/16 14:24:26;;;;;;;;;;;8.00;99.90;;;;;;5075362;28;19915;-79